Time;durP1;ratioP1;P1;durP2;ratioP2;P2;SDS_P1;SDS_P2;PMS_P1;PMS_P2;Temp;Humidity;BMP_temperature;BMP_pressure;BME280_temperature;BME280_humidity;BME280_pressure;Samples;Min_cycle;Max_cycle;Signal;HPM_P1;HPM_P2
2021/03/13 00:01:52;;;;;;;3.90;1.58;;;4.90;64.50;;;;;;5072365;28;20020;-75
2021/03/13 00:04:18;;;;;;;4.45;1.23;;;4.80;64.40;;;;;;5052975;28;20506;-75
2021/03/13 00:06:43;;;;;;;5.40;1.42;;;4.80;64.20;;;;;;5072061;28;20506;-75
2021/03/13 00:09:09;;;;;;;3.30;1.17;;;4.70;64.30;;;;;;5071889;28;20047;-75
2021/03/13 00:11:35;;;;;;;2.28;1.17;;;4.70;64.20;;;;;;5072142;28;20031;-75
2021/03/13 00:14:00;;;;;;;3.42;1.20;;;4.70;63.90;;;;;;5072217;28;20474;-76
2021/03/13 00:16:26;;;;;;;2.60;1.05;;;4.70;63.70;;;;;;5071837;28;20107;-75
2021/03/13 00:18:52;;;;;;;2.88;1.20;;;4.70;63.90;;;;;;5053892;28;20030;-76
2021/03/13 00:21:18;;;;;;;3.08;1.10;;;4.70;63.90;;;;;;5071925;28;20031;-75
2021/03/13 00:23:43;;;;;;;1.52;0.80;;;4.70;63.30;;;;;;5071868;28;20051;-75
2021/03/13 00:26:09;;;;;;;5.15;1.15;;;4.70;62.50;;;;;;5053908;28;20021;-75
2021/03/13 00:28:35;;;;;;;4.35;1.48;;;4.80;62.40;;;;;;5071771;28;20020;-75
2021/03/13 00:31:00;;;;;;;2.35;1.40;;;4.90;62.00;;;;;;5053884;28;20032;-75
2021/03/13 00:33:34;;;;;;;2.60;1.10;;;4.90;61.30;;;;;;5071767;28;20434;-74
2021/03/13 00:36:00;;;;;;;2.53;1.33;;;4.90;61.30;;;;;;5071670;28;20034;-75
2021/03/13 00:38:26;;;;;;;4.95;1.13;;;5.00;61.10;;;;;;5053726;28;20149;-75
2021/03/13 00:40:52;;;;;;;2.50;1.00;;;5.00;60.70;;;;;;5071602;28;20025;-75
2021/03/13 00:43:18;;;;;;;3.65;1.30;;;5.00;60.00;;;;;;5071678;28;20025;-76
2021/03/13 00:45:45;;;;;;;2.25;0.80;;;5.10;59.70;;;;;;5053711;28;20017;-75
2021/03/13 00:48:12;;;;;;;2.58;0.85;;;5.10;59.50;;;;;;5053487;28;20495;-76
2021/03/13 00:50:40;;;;;;;4.18;1.15;;;5.20;59.30;;;;;;5071535;28;20031;-75
2021/03/13 00:53:06;;;;;;;2.58;1.27;;;5.30;58.80;;;;;;5071702;28;20031;-75
2021/03/13 00:55:33;;;;;;;1.75;0.80;;;5.40;58.30;;;;;;5071536;28;20038;-75
2021/03/13 00:58:00;;;;;;;4.03;1.20;;;5.40;58.50;;;;;;5053642;28;20511;-75
2021/03/13 01:00:26;;;;;;;2.15;1.08;;;5.50;58.50;;;;;;5071470;28;20031;-75
2021/03/13 01:02:52;;;;;;;4.53;1.00;;;5.40;58.50;;;;;;5053260;28;20226;-75
2021/03/13 01:05:18;;;;;;;1.58;0.70;;;5.40;58.50;;;;;;5053440;28;20115;-75
2021/03/13 01:07:45;;;;;;;1.92;0.70;;;5.40;58.50;;;;;;5053420;28;20121;-75
2021/03/13 01:10:29;;;;;;;5.32;1.38;;;5.40;58.40;;;;;;5053830;28;20025;-75
2021/03/13 01:12:55;;;;;;;1.65;0.80;;;5.40;58.60;;;;;;5053513;28;20029;-75
2021/03/13 01:15:22;;;;;;;2.13;0.80;;;5.30;58.60;;;;;;5053809;28;20025;-75
2021/03/13 01:17:48;;;;;;;3.13;1.20;;;5.30;58.90;;;;;;5074900;28;20039;-74
2021/03/13 01:20:16;;;;;;;2.40;1.20;;;5.30;59.00;;;;;;5075003;28;20074;-75
2021/03/13 01:22:43;;;;;;;2.47;0.90;;;5.20;58.90;;;;;;5057032;28;20028;-75
2021/03/13 01:25:10;;;;;;;1.23;0.90;;;5.20;59.00;;;;;;5074905;28;20380;-75
2021/03/13 01:27:37;;;;;;;4.88;0.88;;;5.20;59.10;;;;;;5074889;28;20017;-75
2021/03/13 01:30:12;;;;;;;1.60;0.98;;;5.20;59.00;;;;;;5040345;28;20040;-75
2021/03/13 01:32:38;;;;;;;3.08;1.08;;;5.20;58.60;;;;;;5056878;28;20067;-74
2021/03/13 01:35:05;;;;;;;1.75;0.80;;;5.30;58.60;;;;;;5074721;28;20052;-75
2021/03/13 01:37:30;;;;;;;3.17;1.20;;;5.20;58.60;;;;;;5074688;28;20426;-74
2021/03/13 01:39:56;;;;;;;2.40;0.90;;;5.20;58.80;;;;;;5056687;28;20024;-75
2021/03/13 01:42:22;;;;;;;1.38;0.80;;;5.10;59.00;;;;;;5074649;28;20033;-75
2021/03/13 01:44:48;;;;;;;3.55;1.40;;;5.20;58.80;;;;;;5039932;28;20024;-75
2021/03/13 01:47:21;;;;;;;1.42;0.93;;;5.10;59.10;;;;;;5074612;28;20070;-74
2021/03/13 01:49:49;;;;;;;2.63;1.02;;;5.10;59.40;;;;;;5074528;28;20407;-75
2021/03/13 01:52:16;;;;;;;2.45;1.00;;;5.10;59.60;;;;;;5056554;28;20392;-75
2021/03/13 01:54:42;;;;;;;4.85;0.82;;;5.10;60.30;;;;;;5074326;28;20484;-75
2021/03/13 01:57:08;;;;;;;2.83;2.17;;;5.00;60.50;;;;;;5074326;28;20082;-75
2021/03/13 01:59:34;;;;;;;3.90;1.13;;;4.90;60.20;;;;;;5074241;28;20032;-74
2021/03/13 02:02:01;;;;;;;2.28;0.90;;;5.00;59.90;;;;;;5056452;28;20031;-75
2021/03/13 02:04:27;;;;;;;1.33;0.80;;;5.00;59.70;;;;;;5039390;28;20025;-74
2021/03/13 02:07:15;;;;;;;4.50;1.00;;;5.00;60.10;;;;;;5056330;28;20142;-75
2021/03/13 02:10:03;;;;;;;1.17;0.88;;;5.00;60.10;;;;;;5056266;28;20017;-75
2021/03/13 02:12:38;;;;;;;1.42;0.70;;;5.00;59.80;;;;;;5074248;28;20044;-75
2021/03/13 02:15:14;;;;;;;3.97;0.95;;;5.10;59.60;;;;;;5074040;28;20074;-74
2021/03/13 02:17:52;;;;;;;0.98;0.80;;;5.10;59.80;;;;;;5073945;28;20049;-74
2021/03/13 02:20:46;;;;;;;3.00;1.15;;;5.10;59.60;;;;;;5073960;28;20025;-74
2021/03/13 02:23:13;;;;;;;5.63;0.93;;;5.10;59.40;;;;;;5073977;28;20381;-75
2021/03/13 02:25:59;;;;;;;1.25;0.75;;;5.10;59.30;;;;;;5073726;28;20059;-75
2021/03/13 02:28:41;;;;;;;1.50;0.77;;;5.10;59.40;;;;;;5054944;28;20023;-74
2021/03/13 02:31:08;;;;;;;1.88;0.80;;;5.10;59.60;;;;;;5073814;28;20162;-75
2021/03/13 02:33:40;;;;;;;4.00;1.00;;;5.10;59.70;;;;;;5073750;28;20036;-75
2021/03/13 02:36:08;;;;;;;;;;;5.00;60.10;;;;;;5055991;28;20056;-75
2021/03/13 02:38:52;;;;;;;1.58;0.80;;;5.00;60.70;;;;;;5073569;28;19934;-75
2021/03/13 02:41:22;;;;;;;4.50;1.13;;;5.00;60.50;;;;;;5073439;28;20155;-75
2021/03/13 02:43:50;;;;;;;3.92;1.08;;;5.00;60.70;;;;;;5055691;28;20028;-75
2021/03/13 02:46:20;;;;;;;2.15;1.00;;;5.10;60.70;;;;;;5055466;28;20476;-75
2021/03/13 02:48:47;;;;;;;2.45;0.85;;;5.10;60.50;;;;;;5055625;28;20020;-75
2021/03/13 02:51:18;;;;;;;1.98;0.75;;;5.10;60.60;;;;;;5073589;28;20025;-75
2021/03/13 02:53:49;;;;;;;3.85;0.95;;;5.20;60.90;;;;;;5073318;28;20484;-75
2021/03/13 02:56:16;;;;;;;4.95;1.48;;;5.10;60.80;;;;;;5073117;28;20024;-76
2021/03/13 02:58:46;;;;;;;0.93;0.82;;;5.20;61.10;;;;;;5073082;28;20027;-75
2021/03/13 03:01:12;;;;;;;1.67;0.73;;;5.20;61.10;;;;;;5073022;28;20021;-75
2021/03/13 03:03:41;;;;;;;3.92;1.58;;;5.20;61.80;;;;;;5072939;28;20480;-75
2021/03/13 03:06:08;;;;;;;1.27;0.93;;;5.30;60.90;;;;;;5055023;28;20023;-75
2021/03/13 03:08:35;;;;;;;0.70;0.65;;;5.40;61.00;;;;;;5073098;28;20025;-75
2021/03/13 03:11:02;;;;;;;4.55;0.85;;;5.30;61.00;;;;;;5055020;28;20448;-75
2021/03/13 03:13:28;;;;;;;2.22;1.02;;;5.20;61.80;;;;;;5072879;28;20036;-75
2021/03/13 03:15:58;;;;;;;4.72;1.00;;;5.20;62.10;;;;;;5073129;28;20099;-76
2021/03/13 03:18:27;;;;;;;2.75;1.00;;;5.30;61.90;;;;;;5072875;28;20017;-75
2021/03/13 03:20:54;;;;;;;4.95;1.20;;;5.40;62.20;;;;;;5054896;28;20492;-75
2021/03/13 03:23:20;;;;;;;1.40;0.90;;;5.40;62.10;;;;;;5072774;28;20051;-75
2021/03/13 03:25:46;;;;;;;4.30;0.95;;;5.40;62.10;;;;;;5072388;28;20024;-75
2021/03/13 03:28:14;;;;;;;3.50;1.13;;;5.40;62.60;;;;;;5072556;28;20069;-75
2021/03/13 03:30:40;;;;;;;3.03;0.95;;;5.30;62.80;;;;;;5054593;28;20029;-76
2021/03/13 03:33:06;;;;;;;1.75;1.23;;;5.30;63.00;;;;;;5072567;28;20503;-76
2021/03/13 03:35:32;;;;;;;1.50;0.95;;;5.30;63.40;;;;;;5072597;28;20540;-76
2021/03/13 03:38:01;;;;;;;2.65;0.90;;;5.20;63.70;;;;;;5054331;28;20032;-75
2021/03/13 03:40:29;;;;;;;1.45;0.80;;;5.20;64.10;;;;;;5054336;28;20029;-75
2021/03/13 03:43:02;;;;;;;3.03;0.90;;;5.10;64.60;;;;;;5072597;28;20427;-76
2021/03/13 03:45:31;;;;;;;2.50;1.00;;;5.20;64.90;;;;;;5072278;28;20074;-76
2021/03/13 03:48:00;;;;;;;3.55;0.85;;;5.30;65.00;;;;;;5072254;28;20021;-75
2021/03/13 03:50:26;;;;;;;2.13;0.82;;;5.30;64.90;;;;;;5072397;28;20052;-75
2021/03/13 03:52:56;;;;;;;2.30;1.45;;;5.30;65.20;;;;;;5072203;28;20044;-75
2021/03/13 03:55:24;;;;;;;1.85;0.90;;;5.30;65.20;;;;;;5072221;28;20086;-75
2021/03/13 03:57:51;;;;;;;2.45;0.75;;;5.20;65.60;;;;;;5072109;28;20048;-75
2021/03/13 04:00:20;;;;;;;2.13;0.85;;;5.10;65.60;;;;;;5054448;28;20047;-75
2021/03/13 04:02:47;;;;;;;0.60;0.60;;;5.00;65.90;;;;;;5072084;28;20016;-76
2021/03/13 04:05:15;;;;;;;3.10;1.08;;;5.10;66.10;;;;;;5071865;28;20047;-76
2021/03/13 04:07:42;;;;;;;1.95;0.80;;;5.10;66.50;;;;;;5072040;28;20020;-75
2021/03/13 04:10:09;;;;;;;1.70;1.05;;;5.00;65.80;;;;;;5054200;28;20544;-75
2021/03/13 04:12:38;;;;;;;1.17;1.02;;;4.70;66.40;;;;;;5072036;28;20027;-75
2021/03/13 04:15:09;;;;;;;2.33;1.00;;;4.60;67.50;;;;;;5071839;28;20028;-76
2021/03/13 04:17:37;;;;;;;1.48;0.85;;;4.70;67.60;;;;;;5071913;28;20476;-75
2021/03/13 04:20:05;;;;;;;1.83;1.00;;;4.70;67.80;;;;;;5071845;28;20032;-75
2021/03/13 04:22:32;;;;;;;3.28;1.00;;;4.80;67.80;;;;;;5054011;28;20476;-75
2021/03/13 04:25:01;;;;;;;7.75;1.10;;;5.00;67.50;;;;;;5071795;28;20021;-76
2021/03/13 04:27:27;;;;;;;0.93;0.70;;;5.00;68.80;;;;;;5037298;28;20055;-76
2021/03/13 04:29:53;;;;;;;1.85;0.80;;;5.10;69.50;;;;;;5071736;28;20028;-75
2021/03/13 04:32:20;;;;;;;4.20;1.02;;;5.10;70.80;;;;;;5071857;28;20111;-76
2021/03/13 04:34:47;;;;;;;1.70;1.10;;;5.10;69.10;;;;;;5071605;28;20059;-75
2021/03/13 04:37:14;;;;;;;2.58;1.27;;;5.00;70.20;;;;;;5053931;28;20055;-75
2021/03/13 04:39:41;;;;;;;5.63;1.00;;;4.90;69.90;;;;;;5071682;28;20380;-76
2021/03/13 04:42:08;;;;;;;0.95;0.85;;;4.90;70.40;;;;;;5053669;28;20033;-76
2021/03/13 04:44:34;;;;;;;12.68;1.42;;;4.90;70.70;;;;;;5053508;28;20043;-75
2021/03/13 04:47:00;;;;;;;2.28;1.00;;;4.80;70.60;;;;;;5071777;28;20589;-76
2021/03/13 04:49:27;;;;;;;4.40;1.13;;;4.80;70.90;;;;;;5071570;28;20012;-75
2021/03/13 04:51:54;;;;;;;2.83;0.98;;;4.80;71.20;;;;;;5056922;28;20484;-75
2021/03/13 04:54:19;;;;;;;5.97;1.33;;;4.80;71.20;;;;;;5075620;28;20027;-75
2021/03/13 04:56:45;;;;;;;2.10;1.20;;;4.70;71.50;;;;;;5057551;28;20029;-75
2021/03/13 04:59:11;;;;;;;5.97;1.67;;;4.80;71.20;;;;;;5075304;28;20063;-75
2021/03/13 05:01:36;;;;;;;3.40;1.20;;;4.80;70.50;;;;;;5075381;28;20032;-75
2021/03/13 05:04:02;;;;;;;3.45;1.40;;;4.60;71.10;;;;;;5075201;28;20024;-75
2021/03/13 05:06:28;;;;;;;3.17;1.15;;;4.60;71.00;;;;;;5075305;28;20412;-76
2021/03/13 05:08:54;;;;;;;4.20;1.35;;;4.50;71.50;;;;;;5075318;28;20507;-75
2021/03/13 05:11:19;;;;;;;2.05;1.27;;;4.60;72.20;;;;;;5057224;28;20035;-75
2021/03/13 05:13:45;;;;;;;1.30;1.00;;;4.70;72.00;;;;;;5075248;28;20021;-76
2021/03/13 05:16:11;;;;;;;1.40;1.13;;;4.40;71.80;;;;;;5057243;28;20048;-75
2021/03/13 05:18:36;;;;;;;4.85;1.42;;;4.40;72.50;;;;;;5075093;28;20082;-75
2021/03/13 05:21:03;;;;;;;5.32;0.90;;;4.40;72.80;;;;;;5057243;28;20115;-76
2021/03/13 05:23:28;;;;;;;1.70;1.23;;;4.50;72.80;;;;;;5057106;28;20017;-75
2021/03/13 05:25:54;;;;;;;2.55;1.20;;;4.50;72.70;;;;;;5074850;28;20032;-76
2021/03/13 05:28:20;;;;;;;2.35;1.05;;;4.50;72.50;;;;;;5074912;28;20404;-75
2021/03/13 05:30:46;;;;;;;1.08;0.80;;;4.40;72.50;;;;;;5057121;28;20050;-75
2021/03/13 05:33:11;;;;;;;5.38;1.30;;;4.30;73.10;;;;;;5056841;28;20064;-75
2021/03/13 05:35:39;;;;;;;3.03;1.13;;;4.30;73.70;;;;;;5075111;28;20032;-74
2021/03/13 05:38:05;;;;;;;2.47;1.10;;;4.30;73.30;;;;;;5074761;28;20063;-75
2021/03/13 05:40:32;;;;;;;2.53;1.67;;;4.50;73.80;;;;;;5074555;28;20376;-76
2021/03/13 05:42:57;;;;;;;2.22;0.75;;;4.40;72.30;;;;;;5074804;28;20075;-76
2021/03/13 05:45:24;;;;;;;5.35;1.00;;;4.60;72.60;;;;;;5074623;28;20109;-75
2021/03/13 05:47:50;;;;;;;4.72;1.25;;;4.60;72.50;;;;;;5074544;28;20020;-76
2021/03/13 05:50:19;;;;;;;3.60;1.08;;;4.50;72.70;;;;;;5074618;28;20021;-75
2021/03/13 05:52:54;;;;;;;5.35;1.13;;;4.50;72.30;;;;;;5056568;28;20029;-75
2021/03/13 05:55:20;;;;;;;2.13;0.88;;;4.60;72.80;;;;;;5074454;28;20064;-75
2021/03/13 05:57:48;;;;;;;9.88;1.20;;;4.50;72.90;;;;;;5074361;28;20388;-75
2021/03/13 06:00:15;;;;;;;3.35;0.90;;;4.40;72.90;;;;;;5056335;28;20025;-75
2021/03/13 06:02:40;;;;;;;6.30;1.10;;;4.60;72.60;;;;;;5055041;28;20103;-74
2021/03/13 06:05:07;;;;;;;4.70;1.38;;;4.60;71.80;;;;;;5073981;28;20044;-74
2021/03/13 06:07:33;;;;;;;2.10;0.90;;;4.80;70.60;;;;;;5074205;28;20021;-75
2021/03/13 06:09:59;;;;;;;2.80;0.88;;;4.70;70.10;;;;;;5074161;28;20107;-75
2021/03/13 06:12:25;;;;;;;2.20;0.85;;;4.80;70.60;;;;;;5056205;28;20074;-75
2021/03/13 06:14:55;;;;;;;1.65;0.90;;;4.60;70.30;;;;;;5074415;28;20107;-75
2021/03/13 06:17:23;;;;;;;2.20;1.52;;;4.50;71.00;;;;;;5073903;28;20357;-75
2021/03/13 06:19:58;;;;;;;3.20;1.33;;;4.60;71.60;;;;;;5073942;28;20048;-75
2021/03/13 06:22:42;;;;;;;2.97;1.35;;;4.50;72.30;;;;;;5056087;28;20056;-75
2021/03/13 06:25:10;;;;;;;5.63;1.50;;;4.70;72.70;;;;;;5055768;28;20484;-75
2021/03/13 06:27:36;;;;;;;5.72;1.38;;;4.70;71.70;;;;;;5073920;28;20017;-75
2021/03/13 06:30:07;;;;;;;2.92;1.40;;;4.60;71.50;;;;;;5071442;28;20043;-75
2021/03/13 06:32:33;;;;;;;6.07;1.65;;;4.80;71.70;;;;;;5073752;28;20016;-75
2021/03/13 06:35:22;;;;;;;6.28;1.90;;;4.80;71.70;;;;;;5073589;28;20032;-76
2021/03/13 06:37:49;;;;;;;2.63;1.10;;;4.80;73.40;;;;;;5073600;28;20032;-76
2021/03/13 06:40:35;;;;;;;6.30;1.30;;;4.80;72.00;;;;;;5073152;28;20025;-76
2021/03/13 06:43:21;;;;;;;2.70;1.00;;;5.00;71.70;;;;;;5073540;28;20052;-76
2021/03/13 06:46:05;;;;;;;0.70;0.70;;;5.10;71.30;;;;;;5073680;28;20044;-76
2021/03/13 06:48:35;;;;;;;4.38;1.00;;;5.30;70.30;;;;;;5072658;28;20113;-75
2021/03/13 06:51:49;;;;;;;1.55;0.90;;;5.10;69.70;;;;;;5055222;28;20395;-75
2021/03/13 06:54:17;;;;;;;3.60;0.82;;;4.90;69.90;;;;;;5008412;28;20033;-75
2021/03/13 06:56:46;;;;;;;2.72;0.88;;;5.00;70.00;;;;;;5073100;28;20028;-75
2021/03/13 07:02:05;;;;;;;5.38;1.15;;;5.50;69.30;;;;;;5073227;28;20106;-76
2021/03/13 07:04:40;;;;;;;7.82;1.15;;;5.70;69.20;;;;;;5072848;28;20471;-76
2021/03/13 07:07:07;;;;;;;1.13;0.90;;;5.70;71.60;;;;;;5072929;28;20017;-76
2021/03/13 07:09:56;;;;;;;2.83;1.20;;;5.80;71.00;;;;;;5073034;28;20025;-76
2021/03/13 07:12:38;;;;;;;4.18;1.00;;;5.90;68.70;;;;;;5072973;28;20414;-76
2021/03/13 07:15:22;;;;;;;5.90;1.15;;;6.00;68.40;;;;;;5054741;28;20497;-75
2021/03/13 07:17:53;;;;;;;1.85;1.10;;;6.00;69.30;;;;;;5072884;28;20383;-76
2021/03/13 07:20:38;;;;;;;2.47;1.00;;;6.10;68.40;;;;;;5072843;28;20032;-76
2021/03/13 07:23:05;;;;;;;5.45;1.40;;;6.00;67.30;;;;;;5072656;28;20025;-76
2021/03/13 07:25:32;;;;;;;10.98;2.10;;;6.10;67.50;;;;;;5072610;28;20016;-76
2021/03/13 07:28:06;;;;;;;1.98;1.10;;;6.20;67.50;;;;;;5073013;28;20029;-76
2021/03/13 07:30:34;;;;;;;5.63;1.20;;;6.30;66.60;;;;;;5054876;28;20037;-76
2021/03/13 07:33:02;;;;;;;3.55;1.27;;;6.40;68.10;;;;;;5072651;28;20100;-76
2021/03/13 07:35:33;;;;;;;2.90;1.55;;;6.50;67.10;;;;;;5072377;28;20028;-76
2021/03/13 07:38:02;;;;;;;2.57;1.33;;;6.60;65.10;;;;;;5054624;28;20127;-76
2021/03/13 07:40:29;;;;;;;1.85;1.30;;;6.60;65.10;;;;;;5072194;28;20067;-76
2021/03/13 07:42:55;;;;;;;2.03;1.10;;;6.70;64.50;;;;;;5054713;28;20021;-76
2021/03/13 07:45:21;;;;;;;6.40;1.35;;;6.80;65.10;;;;;;5072913;28;20147;-77
2021/03/13 07:47:48;;;;;;;1.98;1.35;;;7.00;65.70;;;;;;5055412;28;20063;-77
2021/03/13 07:50:15;;;;;;;3.28;1.15;;;6.80;64.00;;;;;;5073466;28;20048;-75
2021/03/13 07:52:43;;;;;;;4.18;1.55;;;6.90;65.50;;;;;;5072223;28;20127;-76
2021/03/13 07:55:14;;;;;;;9.55;2.05;;;6.90;64.30;;;;;;5037491;28;20028;-76
2021/03/13 07:57:50;;;;;;;3.05;1.20;;;7.00;64.80;;;;;;5072202;28;20100;-76
2021/03/13 08:00:17;;;;;;;2.47;1.50;;;7.20;64.10;;;;;;5054194;28;20028;-76
2021/03/13 08:02:46;;;;;;;4.32;1.30;;;7.30;64.10;;;;;;5054371;28;20138;-76
2021/03/13 08:05:16;;;;;;;3.58;1.30;;;7.20;63.00;;;;;;5071752;28;20024;-76
2021/03/13 08:08:03;;;;;;;3.40;1.00;;;7.40;63.00;;;;;;5071969;28;20543;-76
2021/03/13 08:10:52;;;;;;;2.50;1.30;;;7.40;61.80;;;;;;5072098;28;20380;-78
2021/03/13 08:13:27;;;;;;;4.55;1.42;;;7.60;61.80;;;;;;5072315;28;20020;-75
2021/03/13 08:16:12;;;;;;;2.55;0.98;;;7.80;60.70;;;;;;5071908;28;20059;-74
2021/03/13 08:18:42;;;;;;;7.13;1.40;;;8.00;60.40;;;;;;5071973;28;20414;-75
2021/03/13 08:21:20;;;;;;;4.32;1.50;;;8.00;60.10;;;;;;5071812;28;20033;-74
2021/03/13 08:23:49;;;;;;;3.20;1.38;;;7.80;60.80;;;;;;5053839;28;20020;-75
2021/03/13 08:26:16;;;;;;;5.10;2.17;;;8.00;60.10;;;;;;5052939;28;20025;-75
2021/03/13 08:28:48;;;;;;;5.25;1.50;;;8.20;61.70;;;;;;5071845;28;20214;-75
2021/03/13 08:31:26;;;;;;;8.35;1.90;;;8.20;60.40;;;;;;5071903;28;20101;-75
2021/03/13 08:34:18;;;;;;;3.55;0.90;;;8.30;60.10;;;;;;5037347;28;20115;-75
2021/03/13 08:36:46;;;;;;;;;;;8.40;59.10;;;;;;5026364;28;20499;-75
2021/03/13 08:39:34;;;;;;;3.88;1.40;;;8.50;59.20;;;;;;5053592;28;19992;-75
2021/03/13 08:42:00;;;;;;;6.45;1.58;;;8.50;57.20;;;;;;5071483;28;20063;-75
2021/03/13 08:44:26;;;;;;;2.40;0.90;;;8.50;56.60;;;;;;5071649;28;20053;-75
2021/03/13 08:46:58;;;;;;;3.80;1.30;;;8.60;55.50;;;;;;5071617;28;20434;-75
2021/03/13 08:49:27;;;;;;;10.15;8.20;;;8.70;56.10;;;;;;5052748;28;20380;-75
2021/03/13 08:52:08;;;;;;;2.38;1.90;;;8.80;55.80;;;;;;5060068;28;20032;-75
2021/03/13 08:54:55;;;;;;;1.77;1.13;;;8.90;56.50;;;;;;5062574;28;20033;-75
2021/03/13 08:57:27;;;;;;;6.80;1.92;;;9.00;55.00;;;;;;5051392;28;20048;-75
2021/03/13 08:59:56;;;;;;;4.28;2.20;;;9.00;55.40;;;;;;5068556;28;20028;-75
2021/03/13 09:02:27;;;;;;;4.80;2.08;;;9.10;55.70;;;;;;5071410;28;20044;-74
2021/03/13 09:04:56;;;;;;;6.32;1.50;;;9.20;55.40;;;;;;5053028;28;20029;-75
2021/03/13 09:07:23;;;;;;;1.85;1.10;;;9.20;54.60;;;;;;5062054;28;20025;-75
2021/03/13 09:09:50;;;;;;;2.58;1.10;;;9.20;54.90;;;;;;5051239;28;20023;-75
2021/03/13 09:12:20;;;;;;;2.40;1.30;;;9.10;54.20;;;;;;5033551;28;20430;-75
2021/03/13 09:14:54;;;;;;;2.90;1.10;;;9.00;53.70;;;;;;5051213;28;20055;-75
2021/03/13 09:17:22;;;;;;;2.00;0.93;;;9.10;54.10;;;;;;5033200;28;20021;-76
2021/03/13 09:19:50;;;;;;;3.03;1.30;;;9.30;53.20;;;;;;5051139;28;20025;-76
2021/03/13 09:22:21;;;;;;;1.40;1.10;;;9.60;52.60;;;;;;5033323;28;20017;-76
2021/03/13 09:25:25;;;;;;;1.52;1.08;;;9.60;51.70;;;;;;5044605;28;20020;-76
2021/03/13 09:27:52;;;;;;;3.78;0.88;;;9.80;51.80;;;;;;4969853;28;20030;-76
2021/03/13 09:30:23;;;;;;;2.28;1.10;;;10.00;52.40;;;;;;4970113;28;20125;-76
2021/03/13 09:32:51;;;;;;;2.93;1.10;;;9.90;52.10;;;;;;5004441;28;20064;-75
2021/03/13 09:35:21;;;;;;;5.55;0.98;;;9.80;52.00;;;;;;5071251;28;20672;-75
2021/03/13 09:37:46;;;;;;;3.63;0.82;;;9.80;53.10;;;;;;5071580;28;20043;-76
2021/03/13 09:40:20;;;;;;;2.42;1.10;;;9.70;53.00;;;;;;5074558;28;20024;-75
2021/03/13 09:42:48;;;;;;;5.80;1.27;;;9.70;53.60;;;;;;5056730;28;20522;-76
2021/03/13 09:45:17;;;;;;;1.38;0.90;;;9.90;52.40;;;;;;5074455;28;20020;-76
2021/03/13 09:47:44;;;;;;;2.00;1.02;;;10.20;52.90;;;;;;5056338;28;20502;-75
2021/03/13 09:50:31;;;;;;;2.83;1.00;;;10.60;52.10;;;;;;5074399;28;20024;-76
2021/03/13 09:53:02;;;;;;;2.50;1.13;;;11.00;51.70;;;;;;5056410;28;20030;-76
2021/03/13 09:55:30;;;;;;;1.53;0.80;;;11.40;50.20;;;;;;5056210;28;20033;-76
2021/03/13 09:58:01;;;;;;;4.28;1.45;;;11.70;49.20;;;;;;5056318;28;20020;-76
2021/03/13 10:00:40;;;;;;;3.67;1.08;;;11.70;48.50;;;;;;5074245;28;20549;-75
2021/03/13 10:03:16;;;;;;;2.47;1.15;;;11.60;48.40;;;;;;5074071;28;20027;-76
2021/03/13 10:05:43;;;;;;;1.85;0.80;;;11.60;49.40;;;;;;5055968;28;20017;-76
2021/03/13 10:08:14;;;;;;;5.10;1.23;;;11.50;48.60;;;;;;5056294;28;20024;-77
2021/03/13 10:10:48;;;;;;;4.30;1.50;;;11.80;49.10;;;;;;5056218;28;20418;-76
2021/03/13 10:13:16;;;;;;;1.25;0.60;;;12.30;48.40;;;;;;5056077;28;20368;-75
2021/03/13 10:15:42;;;;;;;1.48;0.77;;;12.70;45.70;;;;;;5055880;28;20025;-76
2021/03/13 10:18:16;;;;;;;2.25;1.30;;;13.10;45.70;;;;;;5073850;28;20033;-75
2021/03/13 10:20:45;;;;;;;4.60;1.58;;;13.30;46.10;;;;;;5055678;28;20051;-75
2021/03/13 10:23:14;;;;;;;2.38;2.08;;;13.60;45.80;;;;;;5073670;28;20070;-73
2021/03/13 10:25:42;;;;;;;1.45;0.80;;;13.40;42.50;;;;;;5073615;28;20046;-76
2021/03/13 10:28:10;;;;;;;7.65;1.20;;;13.40;43.40;;;;;;5055711;28;20021;-76
2021/03/13 10:30:39;;;;;;;3.55;0.93;;;14.20;42.10;;;;;;5073661;28;20020;-76
2021/03/13 10:33:05;;;;;;;5.05;0.82;;;14.40;41.50;;;;;;5038851;28;20116;-76
2021/03/13 10:35:33;;;;;;;3.00;1.10;;;14.20;40.00;;;;;;5073322;28;20356;-76
2021/03/13 10:38:05;;;;;;;13.85;2.17;;;14.20;41.40;;;;;;5073572;28;20094;-76
2021/03/13 10:40:34;;;;;;;3.05;0.90;;;14.30;42.50;;;;;;5055276;28;20082;-76
2021/03/13 10:43:38;;;;;;;1.88;1.05;;;14.50;39.70;;;;;;5073785;28;20051;-76
2021/03/13 10:46:08;;;;;;;2.03;1.38;;;14.60;39.10;;;;;;5040927;28;20032;-76
2021/03/13 10:48:53;;;;;;;4.60;1.15;;;14.70;39.20;;;;;;5037894;28;20368;-76
2021/03/13 10:51:26;;;;;;;1.10;0.80;;;15.30;39.90;;;;;;5055219;28;20032;-76
2021/03/13 10:53:54;;;;;;;3.33;1.20;;;15.50;38.20;;;;;;5038827;28;20020;-76
2021/03/13 10:56:20;;;;;;;8.88;0.85;;;15.50;40.20;;;;;;5073220;28;20016;-73
2021/03/13 10:58:53;;;;;;;1.65;0.80;;;16.00;38.30;;;;;;5055156;28;20032;-74
2021/03/13 11:01:20;;;;;;;1.95;1.08;;;16.30;37.90;;;;;;5073076;28;20103;-75
2021/03/13 11:03:48;;;;;;;1.52;1.00;;;16.80;38.10;;;;;;5073327;28;20052;-77
2021/03/13 11:06:26;;;;;;;3.03;1.00;;;16.90;38.20;;;;;;5073698;28;20024;-73
2021/03/13 11:08:53;;;;;;;2.53;1.08;;;16.90;38.00;;;;;;5074170;28;20100;-75
2021/03/13 11:11:20;;;;;;;2.35;1.13;;;16.60;37.90;;;;;;5055075;28;20029;-75
2021/03/13 11:13:46;;;;;;;2.35;0.90;;;16.50;37.90;;;;;;5038556;28;20033;-76
2021/03/13 11:16:12;;;;;;;3.10;0.93;;;16.80;38.60;;;;;;5072962;28;20448;-75
2021/03/13 11:18:37;;;;;;;3.47;1.08;;;17.00;39.30;;;;;;5054848;28;20553;-76
2021/03/13 11:21:04;;;;;;;2.38;0.90;;;17.30;38.70;;;;;;5072759;28;20077;-75
2021/03/13 11:23:29;;;;;;;4.63;2.03;;;17.50;37.80;;;;;;5072704;28;20021;-75
2021/03/13 11:25:56;;;;;;;5.43;1.50;;;17.80;37.50;;;;;;5072484;28;20028;-74
2021/03/13 11:28:21;;;;;;;3.42;0.95;;;18.00;37.70;;;;;;5072645;28;20375;-73
2021/03/13 11:30:48;;;;;;;4.18;1.00;;;18.20;35.90;;;;;;5072497;28;20024;-74
2021/03/13 11:33:14;;;;;;;4.95;0.75;;;18.10;35.50;;;;;;5072668;28;20067;-74
2021/03/13 11:35:41;;;;;;;1.15;1.02;;;17.70;36.40;;;;;;5072397;28;20517;-74
2021/03/13 11:38:07;;;;;;;1.58;0.70;;;17.30;36.60;;;;;;5072415;28;20391;-73
2021/03/13 11:40:33;;;;;;;2.35;0.93;;;17.50;37.20;;;;;;5072262;28;20033;-74
2021/03/13 11:43:00;;;;;;;2.10;1.10;;;17.30;37.80;;;;;;5072490;28;20555;-74
2021/03/13 11:45:27;;;;;;;3.22;1.00;;;17.40;37.40;;;;;;5072270;28;20036;-75
2021/03/13 11:47:55;;;;;;;4.15;0.98;;;17.60;37.40;;;;;;5054362;28;20029;-75
2021/03/13 11:50:23;;;;;;;7.70;1.05;;;17.70;37.20;;;;;;5072411;28;20028;-75
2021/03/13 11:52:49;;;;;;;1.58;0.70;;;18.10;36.80;;;;;;5072290;28;20077;-74
2021/03/13 11:55:15;;;;;;;2.05;0.90;;;18.40;35.70;;;;;;5054108;28;20383;-75
2021/03/13 11:57:41;;;;;;;0.90;0.60;;;18.10;34.60;;;;;;5072190;28;20029;-74
2021/03/13 12:00:11;;;;;;;1.60;0.80;;;17.80;34.90;;;;;;5054147;28;20391;-74
2021/03/13 12:02:38;;;;;;;3.33;0.88;;;17.30;36.00;;;;;;5072034;28;20031;-75
2021/03/13 12:05:05;;;;;;;3.28;0.95;;;17.80;36.50;;;;;;5071615;28;20095;-74
2021/03/13 12:07:31;;;;;;;2.60;0.90;;;18.20;36.20;;;;;;5072046;28;20091;-75
2021/03/13 12:09:57;;;;;;;1.90;0.95;;;18.90;35.00;;;;;;5071956;28;20051;-75
2021/03/13 12:12:23;;;;;;;10.15;1.90;;;18.70;33.70;;;;;;5072114;28;20048;-75
2021/03/13 12:14:49;;;;;;;2.20;1.20;;;18.40;35.00;;;;;;5037328;28;20024;-74
2021/03/13 12:17:15;;;;;;;3.55;0.82;;;18.50;35.20;;;;;;5095698;22;20131;-74
2021/03/13 12:19:41;;;;;;;3.13;1.02;;;18.00;35.80;;;;;;5092082;28;20052;-74
2021/03/13 12:22:08;;;;;;;1.08;0.88;;;18.10;37.20;;;;;;5092000;28;20032;-74
2021/03/13 12:24:34;;;;;;;5.78;1.25;;;17.90;36.40;;;;;;5073818;28;20016;-74
2021/03/13 12:27:00;;;;;;;2.55;1.15;;;17.90;37.00;;;;;;5074080;28;20032;-74
2021/03/13 12:29:26;;;;;;;3.97;1.02;;;17.90;37.20;;;;;;5091735;28;20069;-74
2021/03/13 12:31:52;;;;;;;5.13;1.10;;;17.80;37.20;;;;;;5091829;28;20028;-74
2021/03/13 12:34:18;;;;;;;4.13;1.48;;;17.60;38.00;;;;;;5092033;28;20032;-74
2021/03/13 12:36:44;;;;;;;4.35;1.65;;;17.60;38.30;;;;;;5073821;28;20032;-74
2021/03/13 12:39:10;;;;;;;3.30;1.17;;;17.40;38.40;;;;;;5091863;28;20188;-74
2021/03/13 12:41:35;;;;;;;3.08;1.08;;;17.00;38.40;;;;;;5091938;28;20138;-74
2021/03/13 12:44:02;;;;;;;3.88;1.67;;;17.30;38.30;;;;;;5092082;28;20412;-74
2021/03/13 12:46:28;;;;;;;4.13;1.15;;;17.40;38.90;;;;;;5091756;28;20393;-74
2021/03/13 12:48:53;;;;;;;2.15;1.10;;;17.50;37.90;;;;;;5073744;28;20032;-74
2021/03/13 12:51:19;;;;;;;3.50;1.10;;;17.60;37.90;;;;;;5091811;28;20028;-74
2021/03/13 12:53:46;;;;;;;8.60;1.58;;;17.40;38.50;;;;;;5091747;28;20034;-74
2021/03/13 12:56:13;;;;;;;2.60;1.20;;;17.10;39.30;;;;;;5091706;28;20032;-74
2021/03/13 12:58:39;;;;;;;5.93;1.25;;;16.70;38.40;;;;;;5091693;28;20028;-74
2021/03/13 13:01:05;;;;;;;2.47;1.30;;;16.40;39.80;;;;;;5073578;28;20028;-74
2021/03/13 13:03:32;;;;;;;2.58;0.88;;;16.00;39.90;;;;;;5073310;28;20103;-76
2021/03/13 13:05:58;;;;;;;2.60;0.98;;;15.50;40.40;;;;;;5056955;28;20035;-74
2021/03/13 13:08:23;;;;;;;2.90;1.00;;;15.50;41.20;;;;;;5086271;28;20020;-74
2021/03/13 13:10:49;;;;;;;1.42;0.95;;;15.40;41.50;;;;;;5074099;28;20078;-74